createdAt,value
2022-08-31T00:00:36.931Z,18.62
2022-08-31T00:03:25.128Z,18.52
2022-08-31T00:06:07.365Z,18.41
2022-08-31T00:08:37.514Z,18.47
2022-08-31T00:11:09.870Z,18.54
2022-08-31T00:13:38.413Z,18.45
2022-08-31T00:16:07.347Z,18.52
2022-08-31T00:18:37.434Z,18.49
2022-08-31T00:21:06.577Z,18.48
2022-08-31T00:23:34.900Z,18.33
2022-08-31T00:26:03.205Z,18.46
2022-08-31T00:28:31.513Z,18.57
2022-08-31T00:30:59.833Z,18.49
2022-08-31T00:33:28.153Z,18.44
2022-08-31T00:35:57.821Z,18.38
2022-08-31T00:38:26.078Z,18.42
2022-08-31T00:40:54.480Z,18.54
2022-08-31T00:43:40.089Z,18.22
2022-08-31T00:46:11.285Z,18.40
2022-08-31T00:48:45.565Z,18.30
2022-08-31T00:51:18.822Z,18.51
2022-08-31T00:53:50.779Z,18.63
2022-08-31T00:56:20.562Z,18.59
2022-08-31T00:58:54.653Z,18.47
2022-08-31T01:01:24.432Z,18.48
2022-08-31T01:03:52.997Z,18.58
2022-08-31T01:06:24.199Z,18.44
2022-08-31T01:08:55.699Z,18.62
2022-08-31T01:11:24.134Z,18.49
2022-08-31T01:13:52.765Z,18.46
2022-08-31T01:16:26.045Z,18.38
2022-08-31T01:18:55.388Z,18.71
2022-08-31T01:21:30.599Z,18.55
2022-08-31T01:24:03.876Z,18.50
2022-08-31T01:26:34.956Z,18.56
2022-08-31T01:29:07.498Z,18.55
2022-08-31T01:31:40.239Z,18.46
2022-08-31T01:34:08.820Z,18.74
2022-08-31T01:36:40.344Z,18.56
2022-08-31T01:39:12.464Z,18.54
2022-08-31T01:41:44.139Z,18.55
2022-08-31T01:44:17.362Z,18.52
2022-08-31T01:46:47.305Z,18.43
2022-08-31T01:49:17.598Z,18.49
2022-08-31T01:51:47.046Z,18.39
2022-08-31T01:54:18.493Z,17.92
2022-08-31T01:56:49.639Z,18.42
2022-08-31T01:59:25.841Z,18.38
2022-08-31T02:02:01.108Z,18.30
2022-08-31T02:04:31.552Z,18.41
2022-08-31T02:07:02.184Z,18.30
2022-08-31T02:09:33.155Z,18.24
2022-08-31T02:12:01.471Z,17.53
2022-08-31T02:14:29.748Z,18.13
2022-08-31T02:16:58.263Z,17.88
2022-08-31T02:19:26.632Z,18.14
2022-08-31T02:21:57.422Z,18.07
2022-08-31T02:24:25.739Z,17.92
2022-08-31T02:26:58.414Z,17.91
2022-08-31T02:29:27.629Z,18.31
2022-08-31T02:31:57.007Z,18.10
2022-08-31T02:34:25.364Z,18.03
2022-08-31T02:36:54.213Z,18.16
2022-08-31T02:39:23.233Z,17.93
2022-08-31T02:41:52.153Z,18.00
2022-08-31T02:44:22.154Z,18.12
2022-08-31T02:46:50.487Z,17.84
2022-08-31T02:49:37.337Z,18.01
2022-08-31T02:52:05.841Z,17.87
2022-08-31T02:54:34.195Z,18.01
2022-08-31T02:57:02.996Z,18.08
2022-08-31T02:59:32.724Z,18.21
2022-08-31T03:02:01.111Z,18.10
2022-08-31T03:04:30.302Z,17.82
2022-08-31T03:06:58.640Z,17.84
2022-08-31T03:09:27.041Z,17.98
2022-08-31T03:11:55.372Z,17.84
2022-08-31T03:14:23.629Z,17.69
2022-08-31T03:16:54.771Z,17.61
2022-08-31T03:19:23.877Z,17.55
2022-08-31T03:21:56.314Z,17.61
2022-08-31T03:24:27.421Z,17.41
2022-08-31T03:26:56.777Z,17.13
2022-08-31T03:29:25.175Z,17.59
2022-08-31T03:31:57.784Z,17.38
2022-08-31T03:34:27.488Z,17.32
2022-08-31T03:36:56.383Z,17.48
2022-08-31T03:39:24.667Z,17.49
2022-08-31T03:41:53.261Z,17.57
2022-08-31T03:44:23.887Z,17.48
2022-08-31T03:46:55.278Z,17.59
2022-08-31T03:49:26.983Z,17.55
2022-08-31T03:52:10.295Z,17.52
2022-08-31T03:54:46.103Z,17.55
2022-08-31T03:57:14.579Z,17.26
2022-08-31T03:59:44.094Z,17.48
2022-08-31T04:02:21.336Z,17.51
2022-08-31T04:05:21.332Z,17.44
2022-08-31T04:08:09.171Z,17.36
2022-08-31T04:10:49.005Z,17.45
2022-08-31T04:13:36.182Z,17.48
2022-08-31T04:16:26.584Z,17.43
2022-08-31T04:19:16.135Z,17.21
2022-08-31T04:21:57.336Z,17.19
2022-08-31T04:24:26.232Z,17.19
2022-08-31T04:26:54.994Z,17.42
2022-08-31T04:29:23.703Z,17.30
2022-08-31T04:31:52.233Z,17.20
2022-08-31T04:34:20.805Z,16.83
2022-08-31T04:36:49.172Z,17.06
2022-08-31T04:39:21.020Z,17.14
2022-08-31T04:41:52.539Z,17.24
2022-08-31T04:44:21.269Z,17.23
2022-08-31T04:46:57.367Z,17.44
2022-08-31T04:49:25.930Z,17.46
2022-08-31T04:51:54.262Z,17.32
2022-08-31T04:54:23.965Z,17.37
2022-08-31T04:56:52.274Z,17.26
2022-08-31T04:59:30.629Z,16.99
2022-08-31T05:02:21.920Z,16.86
2022-08-31T05:05:06.158Z,17.06
2022-08-31T05:07:34.472Z,17.26
2022-08-31T05:10:05.391Z,17.25
2022-08-31T05:12:33.682Z,17.24
2022-08-31T05:15:01.938Z,17.23
2022-08-31T05:17:30.351Z,17.25
2022-08-31T05:19:58.634Z,17.15
2022-08-31T05:22:27.173Z,17.22
2022-08-31T05:24:57.615Z,17.29
2022-08-31T05:27:27.324Z,17.05
2022-08-31T05:29:55.536Z,17.29
2022-08-31T05:32:45.726Z,17.22
2022-08-31T05:35:14.557Z,17.11
2022-08-31T05:37:44.958Z,17.26
2022-08-31T05:40:14.092Z,17.20
2022-08-31T05:42:43.812Z,17.24
2022-08-31T05:45:12.237Z,17.24
2022-08-31T05:47:42.345Z,17.11
2022-08-31T05:50:11.598Z,17.12
2022-08-31T05:52:42.906Z,17.10
2022-08-31T05:55:12.016Z,17.10
2022-08-31T05:57:40.704Z,17.13
2022-08-31T06:00:12.909Z,17.39
2022-08-31T06:02:42.059Z,17.29
2022-08-31T06:05:12.948Z,17.26
2022-08-31T06:07:41.697Z,17.29
2022-08-31T06:10:12.692Z,17.33
2022-08-31T06:12:44.177Z,17.13
2022-08-31T06:15:15.663Z,17.12
2022-08-31T06:17:45.314Z,17.21
2022-08-31T06:20:17.696Z,17.12
2022-08-31T06:22:47.994Z,17.11
2022-08-31T06:25:27.812Z,17.29
2022-08-31T06:27:56.677Z,17.07
2022-08-31T06:30:27.545Z,17.23
2022-08-31T06:32:58.868Z,17.09
2022-08-31T06:35:33.144Z,17.08
2022-08-31T06:38:21.222Z,17.05
2022-08-31T06:41:28.391Z,16.86
2022-08-31T06:44:16.600Z,16.98
2022-08-31T06:47:08.200Z,17.04
2022-08-31T06:49:40.262Z,17.10
2022-08-31T06:52:09.009Z,16.94
2022-08-31T06:54:39.639Z,16.94
2022-08-31T06:57:26.612Z,17.03
2022-08-31T07:00:13.658Z,17.18
2022-08-31T07:02:54.710Z,17.25
2022-08-31T07:05:26.169Z,17.21
2022-08-31T07:07:55.347Z,17.21
2022-08-31T07:10:23.644Z,17.21
2022-08-31T07:12:51.886Z,17.26
2022-08-31T07:15:20.133Z,17.03
2022-08-31T07:17:51.797Z,17.00
2022-08-31T07:20:21.263Z,16.94
2022-08-31T07:22:49.743Z,16.98
2022-08-31T07:25:44.869Z,17.14
2022-08-31T07:28:14.792Z,16.69
2022-08-31T07:30:43.200Z,17.13
2022-08-31T07:33:16.892Z,17.22
2022-08-31T07:35:50.814Z,17.23
2022-08-31T07:38:52.904Z,17.27
2022-08-31T07:41:40.179Z,17.42
2022-08-31T07:44:09.808Z,17.50
2022-08-31T07:46:40.083Z,17.37
2022-08-31T07:49:13.927Z,17.34
2022-08-31T07:52:12.507Z,17.45
2022-08-31T07:55:07.875Z,17.60
2022-08-31T07:57:55.933Z,17.66
2022-08-31T08:00:27.669Z,17.92
2022-08-31T08:03:11.147Z,17.69
2022-08-31T08:06:12.926Z,17.74
2022-08-31T08:09:24.569Z,17.98
2022-08-31T08:12:07.307Z,17.87
2022-08-31T08:14:54.806Z,17.91
2022-08-31T08:17:31.801Z,17.90
2022-08-31T08:20:13.497Z,18.10
2022-08-31T08:22:54.280Z,17.95
2022-08-31T08:25:35.809Z,18.18
2022-08-31T08:28:28.928Z,18.26
2022-08-31T08:31:01.639Z,18.36
2022-08-31T08:33:34.764Z,18.15
2022-08-31T08:36:08.517Z,18.13
2022-08-31T08:38:43.825Z,18.26
2022-08-31T08:41:16.790Z,18.19
2022-08-31T08:43:52.435Z,18.22
2022-08-31T08:46:40.235Z,18.27
2022-08-31T08:49:19.294Z,18.35
2022-08-31T08:51:53.488Z,18.46
2022-08-31T08:54:31.716Z,18.56
2022-08-31T08:57:04.874Z,18.75
2022-08-31T08:59:33.177Z,18.84
2022-08-31T09:02:05.080Z,18.94
2022-08-31T09:05:00.223Z,19.33
2022-08-31T09:08:10.318Z,19.10
2022-08-31T09:10:46.597Z,19.01
2022-08-31T09:13:26.774Z,18.97
2022-08-31T09:16:08.953Z,19.07
2022-08-31T09:18:49.604Z,18.87
2022-08-31T09:21:22.640Z,18.95
2022-08-31T09:24:01.709Z,18.96
2022-08-31T09:26:48.513Z,18.97
2022-08-31T09:29:32.420Z,19.00
2022-08-31T09:32:06.315Z,19.01
2022-08-31T09:34:38.707Z,19.27
2022-08-31T09:37:16.446Z,19.29
2022-08-31T09:39:48.512Z,19.46
2022-08-31T09:42:31.157Z,19.33
2022-08-31T09:45:07.653Z,19.43
2022-08-31T09:47:51.137Z,19.40
2022-08-31T09:50:35.583Z,19.34
2022-08-31T09:53:40.883Z,19.50
2022-08-31T09:56:16.912Z,19.43
2022-08-31T09:58:50.837Z,19.60
2022-08-31T10:01:26.181Z,19.72
2022-08-31T10:04:20.946Z,19.85
2022-08-31T10:07:01.831Z,20.01
2022-08-31T10:09:36.221Z,20.12
2022-08-31T10:12:13.512Z,20.25
2022-08-31T10:14:50.681Z,20.23
2022-08-31T10:17:26.290Z,20.45
2022-08-31T10:20:07.705Z,20.67
2022-08-31T10:22:41.994Z,20.48
2022-08-31T10:25:22.985Z,20.52
2022-08-31T10:27:58.515Z,20.78
2022-08-31T10:30:36.402Z,20.65
2022-08-31T10:33:13.255Z,20.75
2022-08-31T10:35:54.727Z,20.54
2022-08-31T10:38:32.037Z,19.75
2022-08-31T10:41:11.920Z,20.52
2022-08-31T10:43:49.143Z,20.76
2022-08-31T10:46:19.214Z,20.66
2022-08-31T10:48:53.236Z,20.59
2022-08-31T10:51:30.349Z,20.82
2022-08-31T10:54:24.769Z,20.82
2022-08-31T10:57:04.710Z,20.61
2022-08-31T10:59:45.981Z,20.66
2022-08-31T11:02:45.797Z,20.51
2022-08-31T11:05:33.311Z,20.72
2022-08-31T11:08:22.505Z,21.04
2022-08-31T11:10:54.354Z,21.26
2022-08-31T11:13:53.901Z,21.21
2022-08-31T11:16:46.731Z,21.21
2022-08-31T11:19:44.885Z,21.22
2022-08-31T11:22:53.894Z,21.22
2022-08-31T11:25:48.157Z,21.52
2022-08-31T11:28:34.033Z,20.83
2022-08-31T11:31:09.515Z,21.42
2022-08-31T11:33:37.981Z,21.31
2022-08-31T11:36:10.266Z,21.10
2022-08-31T11:38:48.792Z,21.27
2022-08-31T11:41:46.707Z,21.49
2022-08-31T11:44:52.202Z,21.50
2022-08-31T11:47:54.962Z,21.67
2022-08-31T11:51:07.233Z,21.86
2022-08-31T11:53:44.177Z,22.01
2022-08-31T11:56:15.232Z,22.12
2022-08-31T11:58:50.259Z,22.51
2022-08-31T12:01:36.117Z,22.13
2022-08-31T12:04:06.415Z,22.42
2022-08-31T12:07:11.083Z,22.83
2022-08-31T12:10:29.716Z,23.19
2022-08-31T12:13:24.138Z,22.59
2022-08-31T12:16:36.885Z,23.09
2022-08-31T12:19:43.198Z,23.28
2022-08-31T12:22:56.833Z,23.62
2022-08-31T12:25:36.404Z,23.20
2022-08-31T12:28:12.922Z,23.25
2022-08-31T12:30:51.103Z,23.17
2022-08-31T12:33:23.084Z,23.73
2022-08-31T12:35:58.030Z,23.92
2022-08-31T12:38:27.344Z,24.03
2022-08-31T12:40:58.759Z,24.08
2022-08-31T12:43:34.910Z,24.18
2022-08-31T12:46:34.107Z,23.84
2022-08-31T12:49:22.761Z,23.24
2022-08-31T12:51:57.309Z,24.15
2022-08-31T12:55:23.732Z,24.08
2022-08-31T12:58:13.831Z,24.18
2022-08-31T13:00:43.531Z,24.50
2022-08-31T13:03:21.829Z,24.76
2022-08-31T13:06:09.891Z,24.83
2022-08-31T13:08:42.053Z,24.96
2022-08-31T13:11:22.993Z,25.39
2022-08-31T13:13:54.185Z,25.49
2022-08-31T13:16:23.507Z,25.70
2022-08-31T13:19:02.965Z,25.27
2022-08-31T13:21:31.811Z,25.04
2022-08-31T13:24:08.319Z,24.83
2022-08-31T13:26:38.603Z,24.78
2022-08-31T13:29:10.189Z,24.87
2022-08-31T13:31:50.729Z,24.32
2022-08-31T13:34:20.393Z,24.38
2022-08-31T13:36:53.634Z,24.40
2022-08-31T13:39:28.164Z,23.94
2022-08-31T13:42:06.096Z,24.45
2022-08-31T13:44:44.234Z,24.24
2022-08-31T13:47:24.820Z,24.54
2022-08-31T13:50:07.287Z,24.78
2022-08-31T13:52:37.064Z,25.06
2022-08-31T13:55:09.625Z,25.20
2022-08-31T13:57:39.246Z,25.44
2022-08-31T14:00:33.575Z,25.51
2022-08-31T14:03:45.100Z,25.76
2022-08-31T14:06:25.295Z,26.16
2022-08-31T14:09:00.266Z,26.06
2022-08-31T14:11:29.108Z,26.10
2022-08-31T14:14:07.416Z,26.36
2022-08-31T14:16:43.524Z,26.23
2022-08-31T14:19:12.757Z,26.16
2022-08-31T14:21:43.593Z,24.53
2022-08-31T14:24:13.323Z,25.76
2022-08-31T14:26:44.418Z,26.99
2022-08-31T14:29:15.550Z,26.77
2022-08-31T14:31:52.485Z,26.83
2022-08-31T14:34:27.348Z,26.38
2022-08-31T14:36:59.380Z,26.52
2022-08-31T14:39:31.917Z,26.27
2022-08-31T14:42:03.803Z,26.17
2022-08-31T14:44:36.806Z,26.16
2022-08-31T14:47:06.970Z,25.85
2022-08-31T14:49:36.513Z,25.84
2022-08-31T14:52:06.605Z,25.86
2022-08-31T14:54:37.723Z,25.84
2022-08-31T14:57:12.766Z,25.73
2022-08-31T14:59:44.810Z,25.59
2022-08-31T15:02:21.638Z,25.16
2022-08-31T15:04:50.972Z,25.04
2022-08-31T15:07:20.880Z,25.35
2022-08-31T15:09:50.266Z,25.17
2022-08-31T15:12:19.400Z,25.31
2022-08-31T15:14:47.685Z,25.29
2022-08-31T15:17:20.792Z,25.48
2022-08-31T15:19:55.211Z,25.93
2022-08-31T15:22:26.180Z,26.19
2022-08-31T15:24:55.639Z,26.44
2022-08-31T15:27:28.720Z,26.11
2022-08-31T15:30:08.092Z,26.38
2022-08-31T15:32:45.155Z,25.75
2022-08-31T15:35:18.024Z,26.45
2022-08-31T15:37:53.049Z,26.33
2022-08-31T15:40:22.234Z,25.65
2022-08-31T15:42:50.969Z,24.95
2022-08-31T15:45:19.607Z,24.57
2022-08-31T15:48:07.131Z,24.26
2022-08-31T15:50:36.022Z,24.34
2022-08-31T15:53:09.919Z,23.88
2022-08-31T15:55:41.000Z,23.65
2022-08-31T15:58:10.688Z,23.66
2022-08-31T16:00:41.812Z,23.74
2022-08-31T16:03:15.587Z,23.37
2022-08-31T16:05:44.305Z,23.59
2022-08-31T16:08:14.133Z,23.44
2022-08-31T16:10:44.581Z,23.28
2022-08-31T16:13:13.425Z,23.00
2022-08-31T16:15:41.838Z,23.35
2022-08-31T16:18:12.794Z,23.48
2022-08-31T16:20:41.110Z,23.46
2022-08-31T16:23:09.395Z,23.52
2022-08-31T16:25:47.719Z,23.73
2022-08-31T16:28:18.423Z,23.76
2022-08-31T16:30:46.966Z,23.86
2022-08-31T16:33:16.593Z,23.56
2022-08-31T16:35:45.884Z,23.59
2022-08-31T16:38:15.134Z,23.23
2022-08-31T16:40:44.314Z,23.68
2022-08-31T16:43:12.982Z,23.49
2022-08-31T16:45:42.205Z,23.44
2022-08-31T16:48:29.540Z,23.25
2022-08-31T16:51:02.154Z,23.46
2022-08-31T16:53:32.619Z,23.13
2022-08-31T16:56:04.594Z,23.13
2022-08-31T16:58:51.262Z,23.07
2022-08-31T17:01:25.552Z,22.74
2022-08-31T17:03:56.910Z,22.51
2022-08-31T17:06:31.843Z,21.75
2022-08-31T17:09:03.236Z,22.28
2022-08-31T17:11:35.690Z,22.03
2022-08-31T17:14:11.133Z,21.98
2022-08-31T17:16:41.413Z,22.04
2022-08-31T17:19:13.457Z,22.13
2022-08-31T17:21:50.561Z,21.93
2022-08-31T17:24:23.350Z,21.96
2022-08-31T17:26:54.057Z,21.96
2022-08-31T17:29:23.683Z,21.60
2022-08-31T17:31:53.630Z,21.65
2022-08-31T17:34:26.911Z,21.82
2022-08-31T17:37:00.538Z,21.37
2022-08-31T17:39:29.452Z,21.16
2022-08-31T17:41:58.135Z,21.16
2022-08-31T17:44:30.847Z,21.06
2022-08-31T17:47:04.288Z,20.79
2022-08-31T17:49:37.979Z,20.60
2022-08-31T17:52:09.150Z,20.49
2022-08-31T17:54:42.131Z,20.02
2022-08-31T17:57:13.408Z,20.24
2022-08-31T17:59:48.791Z,20.40
2022-08-31T18:02:21.575Z,20.49
2022-08-31T18:04:54.251Z,20.40
2022-08-31T18:07:23.984Z,20.44
2022-08-31T18:09:53.857Z,20.45
2022-08-31T18:12:25.539Z,20.44
2022-08-31T18:14:57.437Z,20.81
2022-08-31T18:17:26.616Z,20.55
2022-08-31T18:19:55.780Z,20.60
2022-08-31T18:22:26.075Z,20.35
2022-08-31T18:24:54.331Z,19.53
2022-08-31T18:27:22.618Z,20.45
2022-08-31T18:29:52.821Z,20.42
2022-08-31T18:32:23.091Z,20.28
2022-08-31T18:34:57.050Z,20.23
2022-08-31T18:37:28.181Z,20.21
2022-08-31T18:40:14.037Z,20.20
2022-08-31T18:43:00.191Z,20.14
2022-08-31T18:45:30.827Z,20.05
2022-08-31T18:48:25.114Z,20.23
2022-08-31T18:50:51.044Z,20.02
2022-08-31T18:53:28.688Z,19.98
2022-08-31T18:56:07.957Z,19.57
2022-08-31T18:58:36.915Z,19.85
2022-08-31T19:01:10.445Z,19.73
2022-08-31T19:03:39.634Z,18.96
2022-08-31T19:06:08.866Z,18.72
2022-08-31T19:08:38.510Z,19.54
2022-08-31T19:11:33.439Z,19.45
2022-08-31T19:14:01.937Z,19.34
2022-08-31T19:16:32.190Z,19.48
2022-08-31T19:19:00.485Z,19.35
2022-08-31T19:21:33.184Z,19.36
2022-08-31T19:24:07.404Z,19.54
2022-08-31T19:26:38.689Z,19.24
2022-08-31T19:29:11.272Z,19.28
2022-08-31T19:31:44.346Z,19.32
2022-08-31T19:34:15.983Z,19.25
2022-08-31T19:36:45.960Z,19.18
2022-08-31T19:39:19.127Z,19.30
2022-08-31T19:41:50.932Z,18.16
2022-08-31T19:44:19.891Z,19.02
2022-08-31T19:46:55.626Z,18.93
2022-08-31T19:49:26.691Z,18.94
2022-08-31T19:52:01.105Z,18.84
2022-08-31T19:54:35.742Z,18.69
2022-08-31T19:57:06.845Z,18.74
2022-08-31T19:59:35.952Z,18.62
2022-08-31T20:02:07.545Z,18.73
2022-08-31T20:04:36.676Z,18.02
2022-08-31T20:07:06.398Z,18.54
2022-08-31T20:09:36.434Z,18.39
2022-08-31T20:12:05.256Z,18.35
2022-08-31T20:14:33.556Z,18.35
2022-08-31T20:17:02.043Z,18.22
2022-08-31T20:19:36.697Z,18.21
2022-08-31T20:22:08.061Z,17.98
2022-08-31T20:24:43.919Z,18.18
2022-08-31T20:27:18.376Z,17.83
2022-08-31T20:29:48.150Z,17.78
2022-08-31T20:32:16.609Z,18.13
2022-08-31T20:34:44.922Z,18.12
2022-08-31T20:37:14.201Z,18.09
2022-08-31T20:39:43.802Z,18.08
2022-08-31T20:42:12.773Z,18.15
2022-08-31T20:44:41.134Z,18.01
2022-08-31T20:47:29.350Z,17.98
2022-08-31T20:49:59.695Z,17.77
2022-08-31T20:52:35.938Z,18.01
2022-08-31T20:55:08.255Z,17.86
2022-08-31T20:57:40.658Z,17.46
2022-08-31T21:00:11.734Z,17.86
2022-08-31T21:02:40.744Z,17.05
2022-08-31T21:05:38.083Z,17.92
2022-08-31T21:08:02.508Z,17.96
2022-08-31T21:10:37.426Z,18.01
2022-08-31T21:13:10.182Z,17.05
2022-08-31T21:15:44.771Z,18.07
2022-08-31T21:18:17.371Z,17.89
2022-08-31T21:20:46.171Z,17.81
2022-08-31T21:23:14.453Z,17.84
2022-08-31T21:25:47.005Z,17.82
2022-08-31T21:28:18.292Z,17.86
2022-08-31T21:30:49.560Z,17.47
2022-08-31T21:33:18.207Z,17.86
2022-08-31T21:35:47.749Z,17.68
2022-08-31T21:38:16.204Z,17.87
2022-08-31T21:40:52.085Z,17.69
2022-08-31T21:43:21.125Z,17.65
2022-08-31T21:45:55.129Z,17.56
2022-08-31T21:48:26.152Z,17.56
2022-08-31T21:50:54.983Z,17.61
2022-08-31T21:53:25.719Z,17.57
2022-08-31T21:55:55.557Z,17.56
2022-08-31T21:58:23.785Z,17.26
2022-08-31T22:00:52.561Z,17.47
2022-08-31T22:03:21.249Z,17.21
2022-08-31T22:05:50.305Z,17.43
2022-08-31T22:08:19.876Z,17.89
2022-08-31T22:10:50.257Z,17.30
2022-08-31T22:13:20.047Z,17.38
2022-08-31T22:15:48.527Z,17.43
2022-08-31T22:21:05.853Z,17.40
2022-08-31T22:23:35.749Z,17.23
2022-08-31T22:26:04.251Z,17.27
2022-08-31T22:28:34.836Z,17.19
2022-08-31T22:31:04.742Z,17.24
2022-08-31T22:33:33.022Z,17.09
2022-08-31T22:36:01.866Z,17.11
2022-08-31T22:38:30.190Z,17.11
2022-08-31T22:40:58.874Z,17.05
2022-08-31T22:43:27.209Z,17.05
2022-08-31T22:45:56.916Z,17.04
2022-08-31T22:48:28.064Z,16.88
2022-08-31T22:50:56.396Z,16.88
2022-08-31T22:53:24.630Z,16.93
2022-08-31T22:55:52.884Z,16.82
2022-08-31T22:58:21.252Z,16.73
2022-08-31T23:00:49.628Z,16.89
2022-08-31T23:03:22.027Z,16.83
2022-08-31T23:05:52.669Z,16.29
2022-08-31T23:08:22.573Z,16.69
2022-08-31T23:10:50.847Z,16.66
2022-08-31T23:13:39.146Z,16.63
2022-08-31T23:16:07.453Z,16.50
2022-08-31T23:18:37.130Z,16.52
2022-08-31T23:21:08.698Z,16.49
2022-08-31T23:23:37.514Z,16.47
2022-08-31T23:26:09.561Z,16.35
2022-08-31T23:28:38.409Z,16.40
2022-08-31T23:31:08.387Z,16.33
2022-08-31T23:33:38.054Z,16.15
2022-08-31T23:36:08.231Z,16.04
2022-08-31T23:38:37.982Z,16.22
2022-08-31T23:41:06.598Z,16.17
2022-08-31T23:43:41.913Z,16.10
2022-08-31T23:46:10.203Z,16.17
2022-08-31T23:48:41.049Z,16.18
2022-08-31T23:51:10.669Z,15.92
2022-08-31T23:53:39.293Z,16.09
2022-08-31T23:56:09.648Z,16.00
2022-08-31T23:58:39.893Z,15.86
